sensor_id;sensor_type;location;lat;lon;timestamp;temperature;humidity
14144;DHT22;7152;48.348;10.980;2023-04-24T00:00:57;10.70;99.90
14144;DHT22;7152;48.348;10.980;2023-04-24T00:03:24;10.80;99.90
14144;DHT22;7152;48.348;10.980;2023-04-24T00:05:50;10.70;99.90
14144;DHT22;7152;48.348;10.980;2023-04-24T00:08:17;10.70;99.90
14144;DHT22;7152;48.348;10.980;2023-04-24T00:10:43;10.70;99.90
14144;DHT22;7152;48.348;10.980;2023-04-24T00:13:09;10.70;99.90
14144;DHT22;7152;48.348;10.980;2023-04-24T00:15:35;10.70;99.90
14144;DHT22;7152;48.348;10.980;2023-04-24T00:18:01;10.70;99.90
14144;DHT22;7152;48.348;10.980;2023-04-24T00:20:27;10.60;99.90
14144;DHT22;7152;48.348;10.980;2023-04-24T00:22:55;10.60;99.90
14144;DHT22;7152;48.348;10.980;2023-04-24T00:25:20;10.60;99.90
14144;DHT22;7152;48.348;10.980;2023-04-24T00:27:46;10.60;99.90
14144;DHT22;7152;48.348;10.980;2023-04-24T00:30:12;10.50;99.90
14144;DHT22;7152;48.348;10.980;2023-04-24T00:32:37;10.50;99.90
14144;DHT22;7152;48.348;10.980;2023-04-24T00:35:03;10.50;99.90
14144;DHT22;7152;48.348;10.980;2023-04-24T00:37:29;10.40;99.90
14144;DHT22;7152;48.348;10.980;2023-04-24T00:39:55;10.40;99.90
14144;DHT22;7152;48.348;10.980;2023-04-24T00:42:20;10.50;99.90
14144;DHT22;7152;48.348;10.980;2023-04-24T00:44:46;10.40;99.90
14144;DHT22;7152;48.348;10.980;2023-04-24T00:47:12;10.40;99.90
14144;DHT22;7152;48.348;10.980;2023-04-24T00:49:39;10.40;99.90
14144;DHT22;7152;48.348;10.980;2023-04-24T00:52:04;10.30;99.90
14144;DHT22;7152;48.348;10.980;2023-04-24T00:54:36;10.30;99.90
14144;DHT22;7152;48.348;10.980;2023-04-24T00:57:05;10.20;99.90
14144;DHT22;7152;48.348;10.980;2023-04-24T00:59:31;10.30;99.90
14144;DHT22;7152;48.348;10.980;2023-04-24T01:01:57;10.20;99.90
14144;DHT22;7152;48.348;10.980;2023-04-24T01:04:24;10.20;99.90
14144;DHT22;7152;48.348;10.980;2023-04-24T01:06:50;10.20;99.90
14144;DHT22;7152;48.348;10.980;2023-04-24T01:09:16;10.20;99.90
14144;DHT22;7152;48.348;10.980;2023-04-24T01:11:43;10.20;99.90
14144;DHT22;7152;48.348;10.980;2023-04-24T01:14:09;10.20;99.90
14144;DHT22;7152;48.348;10.980;2023-04-24T01:16:35;10.10;99.90
14144;DHT22;7152;48.348;10.980;2023-04-24T01:19:01;10.10;99.90
14144;DHT22;7152;48.348;10.980;2023-04-24T01:21:27;10.10;99.90
14144;DHT22;7152;48.348;10.980;2023-04-24T01:23:54;10.10;99.90
14144;DHT22;7152;48.348;10.980;2023-04-24T01:26:21;10.10;99.90
14144;DHT22;7152;48.348;10.980;2023-04-24T01:28:48;10.10;99.90
14144;DHT22;7152;48.348;10.980;2023-04-24T01:31:15;10.10;99.90
14144;DHT22;7152;48.348;10.980;2023-04-24T01:33:42;10.10;99.90
14144;DHT22;7152;48.348;10.980;2023-04-24T01:36:10;10.10;99.90
14144;DHT22;7152;48.348;10.980;2023-04-24T01:38:36;10.10;99.90
14144;DHT22;7152;48.348;10.980;2023-04-24T01:41:02;10.10;99.90
14144;DHT22;7152;48.348;10.980;2023-04-24T01:43:28;10.10;99.90
14144;DHT22;7152;48.348;10.980;2023-04-24T01:45:54;10.10;99.90
14144;DHT22;7152;48.348;10.980;2023-04-24T01:48:20;10.10;99.90
14144;DHT22;7152;48.348;10.980;2023-04-24T01:50:46;10.10;99.90
14144;DHT22;7152;48.348;10.980;2023-04-24T01:53:11;10.10;99.90
14144;DHT22;7152;48.348;10.980;2023-04-24T01:55:37;10.10;99.90
14144;DHT22;7152;48.348;10.980;2023-04-24T01:58:03;10.10;99.90
14144;DHT22;7152;48.348;10.980;2023-04-24T02:00:28;10.10;99.90
14144;DHT22;7152;48.348;10.980;2023-04-24T02:02:54;10.10;99.90
14144;DHT22;7152;48.348;10.980;2023-04-24T02:05:20;10.10;99.90
14144;DHT22;7152;48.348;10.980;2023-04-24T02:07:45;10.10;99.90
14144;DHT22;7152;48.348;10.980;2023-04-24T02:10:11;10.00;99.90
14144;DHT22;7152;48.348;10.980;2023-04-24T02:12:37;10.10;99.90
14144;DHT22;7152;48.348;10.980;2023-04-24T02:15:03;10.00;99.90
14144;DHT22;7152;48.348;10.980;2023-04-24T02:17:29;10.00;99.90
14144;DHT22;7152;48.348;10.980;2023-04-24T02:19:56;10.00;99.90
14144;DHT22;7152;48.348;10.980;2023-04-24T02:22:21;10.10;99.90
14144;DHT22;7152;48.348;10.980;2023-04-24T02:24:47;10.10;99.90
14144;DHT22;7152;48.348;10.980;2023-04-24T02:27:13;10.10;99.90
14144;DHT22;7152;48.348;10.980;2023-04-24T02:29:38;10.10;99.90
14144;DHT22;7152;48.348;10.980;2023-04-24T02:32:04;10.00;99.90
14144;DHT22;7152;48.348;10.980;2023-04-24T02:34:29;10.00;99.90
14144;DHT22;7152;48.348;10.980;2023-04-24T02:36:55;10.00;99.90
14144;DHT22;7152;48.348;10.980;2023-04-24T02:39:21;10.00;99.90
14144;DHT22;7152;48.348;10.980;2023-04-24T02:41:46;10.00;99.90
14144;DHT22;7152;48.348;10.980;2023-04-24T02:44:12;10.00;99.90
14144;DHT22;7152;48.348;10.980;2023-04-24T02:46:38;10.00;99.90
14144;DHT22;7152;48.348;10.980;2023-04-24T02:49:03;9.90;99.90
14144;DHT22;7152;48.348;10.980;2023-04-24T02:51:29;10.00;99.90
14144;DHT22;7152;48.348;10.980;2023-04-24T02:53:55;10.00;99.90
14144;DHT22;7152;48.348;10.980;2023-04-24T02:56:20;10.00;99.90
14144;DHT22;7152;48.348;10.980;2023-04-24T02:58:46;10.00;99.90
14144;DHT22;7152;48.348;10.980;2023-04-24T03:01:12;10.00;99.90
14144;DHT22;7152;48.348;10.980;2023-04-24T03:03:38;10.00;99.90
14144;DHT22;7152;48.348;10.980;2023-04-24T03:06:04;10.00;99.90
14144;DHT22;7152;48.348;10.980;2023-04-24T03:08:31;10.00;99.90
14144;DHT22;7152;48.348;10.980;2023-04-24T03:10:57;9.90;99.90
14144;DHT22;7152;48.348;10.980;2023-04-24T03:13:23;9.90;99.90
14144;DHT22;7152;48.348;10.980;2023-04-24T03:15:48;9.90;99.90
14144;DHT22;7152;48.348;10.980;2023-04-24T03:18:14;9.90;99.90
14144;DHT22;7152;48.348;10.980;2023-04-24T03:20:40;10.00;99.90
14144;DHT22;7152;48.348;10.980;2023-04-24T03:23:05;10.00;99.90
14144;DHT22;7152;48.348;10.980;2023-04-24T03:25:31;9.90;99.90
14144;DHT22;7152;48.348;10.980;2023-04-24T03:27:56;10.00;99.90
14144;DHT22;7152;48.348;10.980;2023-04-24T03:30:22;10.00;99.90
14144;DHT22;7152;48.348;10.980;2023-04-24T03:32:48;10.00;99.90
14144;DHT22;7152;48.348;10.980;2023-04-24T03:35:13;10.00;99.90
14144;DHT22;7152;48.348;10.980;2023-04-24T03:37:39;10.00;99.90
14144;DHT22;7152;48.348;10.980;2023-04-24T03:40:05;10.00;99.90
14144;DHT22;7152;48.348;10.980;2023-04-24T03:42:32;9.90;99.90
14144;DHT22;7152;48.348;10.980;2023-04-24T03:44:58;10.00;99.90
14144;DHT22;7152;48.348;10.980;2023-04-24T03:47:23;10.00;99.90
14144;DHT22;7152;48.348;10.980;2023-04-24T03:49:49;10.00;99.90
14144;DHT22;7152;48.348;10.980;2023-04-24T03:52:15;9.90;99.90
14144;DHT22;7152;48.348;10.980;2023-04-24T03:54:41;9.90;99.90
14144;DHT22;7152;48.348;10.980;2023-04-24T03:57:06;9.80;99.90
14144;DHT22;7152;48.348;10.980;2023-04-24T03:59:32;9.80;99.90
14144;DHT22;7152;48.348;10.980;2023-04-24T04:01:57;9.80;99.90
14144;DHT22;7152;48.348;10.980;2023-04-24T04:04:23;9.80;99.90
14144;DHT22;7152;48.348;10.980;2023-04-24T04:06:49;9.80;99.90
14144;DHT22;7152;48.348;10.980;2023-04-24T04:09:14;9.80;99.90
14144;DHT22;7152;48.348;10.980;2023-04-24T04:11:40;9.90;99.90
14144;DHT22;7152;48.348;10.980;2023-04-24T04:14:06;9.70;99.90
14144;DHT22;7152;48.348;10.980;2023-04-24T04:16:31;9.80;99.90
14144;DHT22;7152;48.348;10.980;2023-04-24T04:18:57;9.70;99.90
14144;DHT22;7152;48.348;10.980;2023-04-24T04:21:22;9.70;99.90
14144;DHT22;7152;48.348;10.980;2023-04-24T04:23:48;9.70;99.90
14144;DHT22;7152;48.348;10.980;2023-04-24T04:26:14;9.70;99.90
14144;DHT22;7152;48.348;10.980;2023-04-24T04:28:40;9.70;99.90
14144;DHT22;7152;48.348;10.980;2023-04-24T04:31:06;9.70;99.90
14144;DHT22;7152;48.348;10.980;2023-04-24T04:33:33;9.70;99.90
14144;DHT22;7152;48.348;10.980;2023-04-24T04:35:59;9.70;99.90
14144;DHT22;7152;48.348;10.980;2023-04-24T04:38:25;9.70;99.90
14144;DHT22;7152;48.348;10.980;2023-04-24T04:40:55;9.70;99.90
14144;DHT22;7152;48.348;10.980;2023-04-24T04:43:23;9.70;99.90
14144;DHT22;7152;48.348;10.980;2023-04-24T04:45:49;9.70;99.90
14144;DHT22;7152;48.348;10.980;2023-04-24T04:48:16;9.90;99.90
14144;DHT22;7152;48.348;10.980;2023-04-24T04:50:43;9.80;99.90
14144;DHT22;7152;48.348;10.980;2023-04-24T04:53:08;9.80;99.90
14144;DHT22;7152;48.348;10.980;2023-04-24T04:55:34;9.90;99.90
14144;DHT22;7152;48.348;10.980;2023-04-24T04:58:00;9.80;99.90
14144;DHT22;7152;48.348;10.980;2023-04-24T05:00:26;9.90;99.90
14144;DHT22;7152;48.348;10.980;2023-04-24T05:02:52;9.90;99.90
14144;DHT22;7152;48.348;10.980;2023-04-24T05:05:18;9.90;99.90
14144;DHT22;7152;48.348;10.980;2023-04-24T05:07:44;10.00;99.90
14144;DHT22;7152;48.348;10.980;2023-04-24T05:10:10;10.00;99.90
14144;DHT22;7152;48.348;10.980;2023-04-24T05:12:36;10.10;99.90
14144;DHT22;7152;48.348;10.980;2023-04-24T05:15:01;10.10;99.90
14144;DHT22;7152;48.348;10.980;2023-04-24T05:17:28;10.10;99.90
14144;DHT22;7152;48.348;10.980;2023-04-24T05:19:54;10.20;99.90
14144;DHT22;7152;48.348;10.980;2023-04-24T05:22:19;10.20;99.90
14144;DHT22;7152;48.348;10.980;2023-04-24T05:24:46;10.30;99.90
14144;DHT22;7152;48.348;10.980;2023-04-24T05:27:12;10.20;99.90
14144;DHT22;7152;48.348;10.980;2023-04-24T05:29:38;10.30;99.90
14144;DHT22;7152;48.348;10.980;2023-04-24T05:32:04;10.20;99.90
14144;DHT22;7152;48.348;10.980;2023-04-24T05:34:30;10.20;99.90
14144;DHT22;7152;48.348;10.980;2023-04-24T05:36:55;10.20;99.90
14144;DHT22;7152;48.348;10.980;2023-04-24T05:39:21;10.20;99.90
14144;DHT22;7152;48.348;10.980;2023-04-24T05:41:47;10.20;99.90
14144;DHT22;7152;48.348;10.980;2023-04-24T05:44:12;10.30;99.90
14144;DHT22;7152;48.348;10.980;2023-04-24T05:46:38;10.30;99.90
14144;DHT22;7152;48.348;10.980;2023-04-24T05:49:04;10.20;99.90
14144;DHT22;7152;48.348;10.980;2023-04-24T05:51:29;10.30;99.90
14144;DHT22;7152;48.348;10.980;2023-04-24T05:53:56;10.30;99.90
14144;DHT22;7152;48.348;10.980;2023-04-24T05:56:23;10.30;99.90
14144;DHT22;7152;48.348;10.980;2023-04-24T05:58:48;10.30;99.90
14144;DHT22;7152;48.348;10.980;2023-04-24T06:01:14;10.40;99.90
14144;DHT22;7152;48.348;10.980;2023-04-24T06:03:41;10.40;99.90
14144;DHT22;7152;48.348;10.980;2023-04-24T06:06:07;10.50;99.90
14144;DHT22;7152;48.348;10.980;2023-04-24T06:08:34;10.50;99.90
14144;DHT22;7152;48.348;10.980;2023-04-24T06:11:00;10.50;99.90
14144;DHT22;7152;48.348;10.980;2023-04-24T06:13:25;10.60;99.90
14144;DHT22;7152;48.348;10.980;2023-04-24T06:15:52;10.60;99.90
14144;DHT22;7152;48.348;10.980;2023-04-24T06:18:17;10.60;99.90
14144;DHT22;7152;48.348;10.980;2023-04-24T06:20:43;10.60;99.90
14144;DHT22;7152;48.348;10.980;2023-04-24T06:23:09;10.60;99.90
14144;DHT22;7152;48.348;10.980;2023-04-24T06:25:34;10.70;99.90
14144;DHT22;7152;48.348;10.980;2023-04-24T06:28:00;10.70;99.90
14144;DHT22;7152;48.348;10.980;2023-04-24T06:30:27;10.70;99.90
14144;DHT22;7152;48.348;10.980;2023-04-24T06:32:53;10.70;99.90
14144;DHT22;7152;48.348;10.980;2023-04-24T06:35:19;10.80;99.90
14144;DHT22;7152;48.348;10.980;2023-04-24T06:37:46;10.80;99.90
14144;DHT22;7152;48.348;10.980;2023-04-24T06:40:12;10.80;99.90
14144;DHT22;7152;48.348;10.980;2023-04-24T06:42:38;10.90;99.90
14144;DHT22;7152;48.348;10.980;2023-04-24T06:45:04;10.90;99.90
14144;DHT22;7152;48.348;10.980;2023-04-24T06:47:30;11.00;99.90
14144;DHT22;7152;48.348;10.980;2023-04-24T06:49:56;11.00;99.90
14144;DHT22;7152;48.348;10.980;2023-04-24T06:52:22;11.00;99.90
14144;DHT22;7152;48.348;10.980;2023-04-24T06:54:48;11.10;99.90
14144;DHT22;7152;48.348;10.980;2023-04-24T06:57:14;11.10;99.90
14144;DHT22;7152;48.348;10.980;2023-04-24T06:59:41;11.10;99.90
14144;DHT22;7152;48.348;10.980;2023-04-24T07:02:07;11.20;99.90
14144;DHT22;7152;48.348;10.980;2023-04-24T07:04:33;11.20;99.90
14144;DHT22;7152;48.348;10.980;2023-04-24T07:06:58;11.30;99.90
14144;DHT22;7152;48.348;10.980;2023-04-24T07:09:25;11.30;99.90
14144;DHT22;7152;48.348;10.980;2023-04-24T07:11:54;11.40;99.90
14144;DHT22;7152;48.348;10.980;2023-04-24T07:14:21;11.40;99.90
14144;DHT22;7152;48.348;10.980;2023-04-24T07:16:47;11.30;99.90
14144;DHT22;7152;48.348;10.980;2023-04-24T07:19:13;11.20;99.90
14144;DHT22;7152;48.348;10.980;2023-04-24T07:21:39;11.10;99.90
14144;DHT22;7152;48.348;10.980;2023-04-24T07:24:05;11.10;99.90
14144;DHT22;7152;48.348;10.980;2023-04-24T07:26:34;11.00;99.90
14144;DHT22;7152;48.348;10.980;2023-04-24T07:29:00;11.00;99.90
14144;DHT22;7152;48.348;10.980;2023-04-24T07:31:26;10.90;99.90
14144;DHT22;7152;48.348;10.980;2023-04-24T07:33:51;11.00;99.90
14144;DHT22;7152;48.348;10.980;2023-04-24T07:36:17;11.10;99.90
14144;DHT22;7152;48.348;10.980;2023-04-24T07:38:48;11.00;99.90
14144;DHT22;7152;48.348;10.980;2023-04-24T07:41:14;11.00;99.90
14144;DHT22;7152;48.348;10.980;2023-04-24T07:43:40;10.90;99.90
14144;DHT22;7152;48.348;10.980;2023-04-24T07:46:07;10.80;99.90
14144;DHT22;7152;48.348;10.980;2023-04-24T07:48:32;10.70;99.90
14144;DHT22;7152;48.348;10.980;2023-04-24T07:50:58;10.70;99.90
14144;DHT22;7152;48.348;10.980;2023-04-24T07:53:24;10.50;99.90
14144;DHT22;7152;48.348;10.980;2023-04-24T07:55:50;10.40;99.90
14144;DHT22;7152;48.348;10.980;2023-04-24T07:58:15;10.30;99.90
14144;DHT22;7152;48.348;10.980;2023-04-24T08:00:41;10.30;99.90
14144;DHT22;7152;48.348;10.980;2023-04-24T08:03:06;10.30;99.90
14144;DHT22;7152;48.348;10.980;2023-04-24T08:05:32;10.40;99.90
14144;DHT22;7152;48.348;10.980;2023-04-24T08:07:58;10.50;99.90
14144;DHT22;7152;48.348;10.980;2023-04-24T08:10:25;10.50;99.90
14144;DHT22;7152;48.348;10.980;2023-04-24T08:12:51;10.50;99.90
14144;DHT22;7152;48.348;10.980;2023-04-24T08:15:17;10.60;99.90
14144;DHT22;7152;48.348;10.980;2023-04-24T08:17:43;10.70;99.90
14144;DHT22;7152;48.348;10.980;2023-04-24T08:20:12;10.70;99.90
14144;DHT22;7152;48.348;10.980;2023-04-24T08:22:41;10.80;99.90
14144;DHT22;7152;48.348;10.980;2023-04-24T08:25:08;10.80;99.90
14144;DHT22;7152;48.348;10.980;2023-04-24T08:27:33;10.90;99.90
14144;DHT22;7152;48.348;10.980;2023-04-24T08:29:59;11.00;99.90
14144;DHT22;7152;48.348;10.980;2023-04-24T08:32:25;11.10;99.90
14144;DHT22;7152;48.348;10.980;2023-04-24T08:34:54;11.30;99.90
14144;DHT22;7152;48.348;10.980;2023-04-24T08:37:22;11.50;99.90
14144;DHT22;7152;48.348;10.980;2023-04-24T08:39:48;11.60;99.90
14144;DHT22;7152;48.348;10.980;2023-04-24T08:42:14;11.80;99.90
14144;DHT22;7152;48.348;10.980;2023-04-24T08:44:41;11.80;99.90
14144;DHT22;7152;48.348;10.980;2023-04-24T08:47:08;11.90;99.90
14144;DHT22;7152;48.348;10.980;2023-04-24T08:49:36;12.00;99.90
14144;DHT22;7152;48.348;10.980;2023-04-24T08:52:02;12.00;99.90
14144;DHT22;7152;48.348;10.980;2023-04-24T08:54:29;12.00;99.90
14144;DHT22;7152;48.348;10.980;2023-04-24T08:56:59;12.00;99.90
14144;DHT22;7152;48.348;10.980;2023-04-24T08:59:30;12.10;99.90
14144;DHT22;7152;48.348;10.980;2023-04-24T09:01:56;12.30;99.90
14144;DHT22;7152;48.348;10.980;2023-04-24T09:04:23;12.50;99.90
14144;DHT22;7152;48.348;10.980;2023-04-24T09:06:51;12.80;99.90
14144;DHT22;7152;48.348;10.980;2023-04-24T09:09:17;13.00;99.90
14144;DHT22;7152;48.348;10.980;2023-04-24T09:11:44;13.20;99.90
14144;DHT22;7152;48.348;10.980;2023-04-24T09:14:10;13.40;99.90
14144;DHT22;7152;48.348;10.980;2023-04-24T09:16:36;13.60;99.90
14144;DHT22;7152;48.348;10.980;2023-04-24T09:19:02;13.70;99.90
14144;DHT22;7152;48.348;10.980;2023-04-24T09:21:32;13.80;99.90
14144;DHT22;7152;48.348;10.980;2023-04-24T09:24:05;13.80;99.90
14144;DHT22;7152;48.348;10.980;2023-04-24T09:26:34;13.50;99.90
14144;DHT22;7152;48.348;10.980;2023-04-24T09:29:00;13.30;99.90
14144;DHT22;7152;48.348;10.980;2023-04-24T09:31:28;13.50;99.90
14144;DHT22;7152;48.348;10.980;2023-04-24T09:33:55;13.40;99.90
14144;DHT22;7152;48.348;10.980;2023-04-24T09:36:35;13.40;99.90
14144;DHT22;7152;48.348;10.980;2023-04-24T09:39:04;13.50;99.90
14144;DHT22;7152;48.348;10.980;2023-04-24T09:41:32;13.60;99.90
14144;DHT22;7152;48.348;10.980;2023-04-24T09:44:14;13.60;99.90
14144;DHT22;7152;48.348;10.980;2023-04-24T09:46:41;13.60;99.90
14144;DHT22;7152;48.348;10.980;2023-04-24T09:49:13;13.70;99.90
14144;DHT22;7152;48.348;10.980;2023-04-24T09:51:39;13.90;99.90
14144;DHT22;7152;48.348;10.980;2023-04-24T09:54:14;13.80;99.90
14144;DHT22;7152;48.348;10.980;2023-04-24T09:56:43;13.90;99.90
14144;DHT22;7152;48.348;10.980;2023-04-24T09:59:09;14.00;99.90
14144;DHT22;7152;48.348;10.980;2023-04-24T10:01:35;14.00;99.90
14144;DHT22;7152;48.348;10.980;2023-04-24T10:04:01;14.10;99.90
14144;DHT22;7152;48.348;10.980;2023-04-24T10:06:33;14.20;99.90
14144;DHT22;7152;48.348;10.980;2023-04-24T10:09:00;14.20;99.90
14144;DHT22;7152;48.348;10.980;2023-04-24T10:11:30;14.30;99.90
14144;DHT22;7152;48.348;10.980;2023-04-24T10:13:56;14.30;99.90
14144;DHT22;7152;48.348;10.980;2023-04-24T10:16:24;14.40;99.90
14144;DHT22;7152;48.348;10.980;2023-04-24T10:18:52;14.50;99.90
14144;DHT22;7152;48.348;10.980;2023-04-24T10:21:18;14.60;99.90
14144;DHT22;7152;48.348;10.980;2023-04-24T10:23:44;14.60;99.90
14144;DHT22;7152;48.348;10.980;2023-04-24T10:26:16;14.10;99.90
14144;DHT22;7152;48.348;10.980;2023-04-24T10:28:47;13.10;99.90
14144;DHT22;7152;48.348;10.980;2023-04-24T10:31:14;12.30;99.90
14144;DHT22;7152;48.348;10.980;2023-04-24T10:33:43;11.70;99.90
14144;DHT22;7152;48.348;10.980;2023-04-24T10:36:11;11.10;99.90
14144;DHT22;7152;48.348;10.980;2023-04-24T10:38:40;10.70;99.90
14144;DHT22;7152;48.348;10.980;2023-04-24T10:41:11;10.30;99.90
14144;DHT22;7152;48.348;10.980;2023-04-24T10:43:41;9.90;99.90
14144;DHT22;7152;48.348;10.980;2023-04-24T10:46:08;9.70;99.90
14144;DHT22;7152;48.348;10.980;2023-04-24T10:48:36;9.60;99.90
14144;DHT22;7152;48.348;10.980;2023-04-24T10:51:11;9.60;99.90
14144;DHT22;7152;48.348;10.980;2023-04-24T10:53:38;9.60;99.90
14144;DHT22;7152;48.348;10.980;2023-04-24T10:56:07;9.80;99.90
14144;DHT22;7152;48.348;10.980;2023-04-24T10:58:41;9.90;99.90
14144;DHT22;7152;48.348;10.980;2023-04-24T11:01:26;10.00;99.90
14144;DHT22;7152;48.348;10.980;2023-04-24T11:04:00;10.30;99.90
14144;DHT22;7152;48.348;10.980;2023-04-24T11:06:35;10.60;99.90
14144;DHT22;7152;48.348;10.980;2023-04-24T11:11:32;12.00;99.90
14144;DHT22;7152;48.348;10.980;2023-04-24T11:18:59;13.70;99.90
14144;DHT22;7152;48.348;10.980;2023-04-24T11:21:25;13.60;99.90
14144;DHT22;7152;48.348;10.980;2023-04-24T11:23:51;13.30;99.90
14144;DHT22;7152;48.348;10.980;2023-04-24T11:26:22;13.20;99.90
14144;DHT22;7152;48.348;10.980;2023-04-24T11:29:06;13.10;99.90
14144;DHT22;7152;48.348;10.980;2023-04-24T11:31:40;13.10;99.90
14144;DHT22;7152;48.348;10.980;2023-04-24T11:34:14;13.60;99.90
14144;DHT22;7152;48.348;10.980;2023-04-24T11:36:46;13.60;99.90
14144;DHT22;7152;48.348;10.980;2023-04-24T11:39:12;14.00;99.90
14144;DHT22;7152;48.348;10.980;2023-04-24T11:41:38;14.60;99.90
14144;DHT22;7152;48.348;10.980;2023-04-24T11:44:06;15.20;99.90
14144;DHT22;7152;48.348;10.980;2023-04-24T11:46:32;15.60;99.90
14144;DHT22;7152;48.348;10.980;2023-04-24T11:48:59;16.00;99.90
14144;DHT22;7152;48.348;10.980;2023-04-24T11:51:26;16.20;99.90
14144;DHT22;7152;48.348;10.980;2023-04-24T11:53:56;16.40;99.90
14144;DHT22;7152;48.348;10.980;2023-04-24T11:56:23;16.20;99.90
14144;DHT22;7152;48.348;10.980;2023-04-24T11:58:51;15.70;99.90
14144;DHT22;7152;48.348;10.980;2023-04-24T12:01:17;15.10;99.90
14144;DHT22;7152;48.348;10.980;2023-04-24T12:03:47;14.50;99.90
14144;DHT22;7152;48.348;10.980;2023-04-24T12:06:13;13.90;99.90
14144;DHT22;7152;48.348;10.980;2023-04-24T12:08:39;13.30;99.90
14144;DHT22;7152;48.348;10.980;2023-04-24T12:11:06;12.80;99.90
14144;DHT22;7152;48.348;10.980;2023-04-24T12:13:33;12.40;99.90
14144;DHT22;7152;48.348;10.980;2023-04-24T12:16:01;12.70;99.90
14144;DHT22;7152;48.348;10.980;2023-04-24T12:18:26;13.50;99.90
14144;DHT22;7152;48.348;10.980;2023-04-24T12:20:52;14.40;99.90
14144;DHT22;7152;48.348;10.980;2023-04-24T12:23:34;15.20;99.90
14144;DHT22;7152;48.348;10.980;2023-04-24T12:26:03;15.90;99.90
14144;DHT22;7152;48.348;10.980;2023-04-24T12:28:38;16.50;99.90
14144;DHT22;7152;48.348;10.980;2023-04-24T12:31:04;17.00;99.90
14144;DHT22;7152;48.348;10.980;2023-04-24T12:33:33;17.80;99.90
14144;DHT22;7152;48.348;10.980;2023-04-24T12:36:00;18.20;99.90
14144;DHT22;7152;48.348;10.980;2023-04-24T12:38:27;18.50;99.90
14144;DHT22;7152;48.348;10.980;2023-04-24T12:41:09;18.80;99.90
14144;DHT22;7152;48.348;10.980;2023-04-24T12:43:36;18.80;99.90
14144;DHT22;7152;48.348;10.980;2023-04-24T12:46:02;18.80;99.90
14144;DHT22;7152;48.348;10.980;2023-04-24T12:48:28;19.10;99.90
14144;DHT22;7152;48.348;10.980;2023-04-24T12:50:54;19.40;99.90
14144;DHT22;7152;48.348;10.980;2023-04-24T12:53:22;19.70;99.90
14144;DHT22;7152;48.348;10.980;2023-04-24T12:55:47;19.80;99.90
14144;DHT22;7152;48.348;10.980;2023-04-24T12:58:20;19.30;99.90
14144;DHT22;7152;48.348;10.980;2023-04-24T13:00:47;18.50;99.90
14144;DHT22;7152;48.348;10.980;2023-04-24T13:03:13;17.70;99.90
14144;DHT22;7152;48.348;10.980;2023-04-24T13:05:38;17.00;99.90
14144;DHT22;7152;48.348;10.980;2023-04-24T13:08:04;16.30;99.90
14144;DHT22;7152;48.348;10.980;2023-04-24T13:10:30;15.60;99.90
14144;DHT22;7152;48.348;10.980;2023-04-24T13:12:56;15.20;99.90
14144;DHT22;7152;48.348;10.980;2023-04-24T13:15:22;15.00;99.90
14144;DHT22;7152;48.348;10.980;2023-04-24T13:17:48;15.00;99.90
14144;DHT22;7152;48.348;10.980;2023-04-24T13:20:14;15.10;99.90
14144;DHT22;7152;48.348;10.980;2023-04-24T13:22:39;15.90;99.90
14144;DHT22;7152;48.348;10.980;2023-04-24T13:25:05;16.90;99.90
14144;DHT22;7152;48.348;10.980;2023-04-24T13:27:32;17.70;99.90
14144;DHT22;7152;48.348;10.980;2023-04-24T13:29:58;18.30;99.70
14144;DHT22;7152;48.348;10.980;2023-04-24T13:32:23;18.70;97.70
14144;DHT22;7152;48.348;10.980;2023-04-24T13:34:49;18.90;96.60
14144;DHT22;7152;48.348;10.980;2023-04-24T13:37:15;18.70;95.60
14144;DHT22;7152;48.348;10.980;2023-04-24T13:39:40;18.30;95.20
14144;DHT22;7152;48.348;10.980;2023-04-24T13:42:09;18.30;95.30
14144;DHT22;7152;48.348;10.980;2023-04-24T13:44:35;18.50;95.00
14144;DHT22;7152;48.348;10.980;2023-04-24T13:47:00;19.00;94.40
14144;DHT22;7152;48.348;10.980;2023-04-24T13:49:27;19.00;94.80
14144;DHT22;7152;48.348;10.980;2023-04-24T13:51:54;19.10;94.90
14144;DHT22;7152;48.348;10.980;2023-04-24T13:54:20;19.20;94.10
14144;DHT22;7152;48.348;10.980;2023-04-24T13:56:46;18.70;94.40
14144;DHT22;7152;48.348;10.980;2023-04-24T13:59:12;18.00;94.90
14144;DHT22;7152;48.348;10.980;2023-04-24T14:01:38;17.60;95.70
14144;DHT22;7152;48.348;10.980;2023-04-24T14:04:04;17.20;95.60
14144;DHT22;7152;48.348;10.980;2023-04-24T14:06:30;17.20;95.90
14144;DHT22;7152;48.348;10.980;2023-04-24T14:08:56;17.70;96.30
14144;DHT22;7152;48.348;10.980;2023-04-24T14:11:22;17.70;95.40
14144;DHT22;7152;48.348;10.980;2023-04-24T14:13:48;17.80;95.40
14144;DHT22;7152;48.348;10.980;2023-04-24T14:16:14;17.10;95.10
14144;DHT22;7152;48.348;10.980;2023-04-24T14:18:40;16.80;94.80
14144;DHT22;7152;48.348;10.980;2023-04-24T14:21:05;16.50;94.60
14144;DHT22;7152;48.348;10.980;2023-04-24T14:23:31;16.20;94.80
14144;DHT22;7152;48.348;10.980;2023-04-24T14:25:58;15.70;94.50
14144;DHT22;7152;48.348;10.980;2023-04-24T14:28:24;15.40;94.80
14144;DHT22;7152;48.348;10.980;2023-04-24T14:30:50;15.60;94.90
14144;DHT22;7152;48.348;10.980;2023-04-24T14:33:17;16.80;94.60
14144;DHT22;7152;48.348;10.980;2023-04-24T14:35:43;18.10;94.70
14144;DHT22;7152;48.348;10.980;2023-04-24T14:38:09;19.50;95.60
14144;DHT22;7152;48.348;10.980;2023-04-24T14:40:35;20.50;94.20
14144;DHT22;7152;48.348;10.980;2023-04-24T14:43:01;21.20;92.40
14144;DHT22;7152;48.348;10.980;2023-04-24T14:45:27;21.80;92.40
14144;DHT22;7152;48.348;10.980;2023-04-24T14:47:53;22.70;91.80
14144;DHT22;7152;48.348;10.980;2023-04-24T14:50:19;23.50;91.40
14144;DHT22;7152;48.348;10.980;2023-04-24T14:52:44;23.60;88.30
14144;DHT22;7152;48.348;10.980;2023-04-24T14:55:10;24.00;87.30
14144;DHT22;7152;48.348;10.980;2023-04-24T14:57:36;23.00;84.40
14144;DHT22;7152;48.348;10.980;2023-04-24T15:00:03;21.90;82.40
14144;DHT22;7152;48.348;10.980;2023-04-24T15:02:32;20.40;84.50
14144;DHT22;7152;48.348;10.980;2023-04-24T15:04:57;19.30;84.80
14144;DHT22;7152;48.348;10.980;2023-04-24T15:07:24;18.50;87.50
14144;DHT22;7152;48.348;10.980;2023-04-24T15:09:50;18.10;86.80
14144;DHT22;7152;48.348;10.980;2023-04-24T15:12:16;17.90;87.60
14144;DHT22;7152;48.348;10.980;2023-04-24T15:14:41;18.00;86.40
14144;DHT22;7152;48.348;10.980;2023-04-24T15:17:07;18.40;86.50
14144;DHT22;7152;48.348;10.980;2023-04-24T15:19:33;19.30;85.50
14144;DHT22;7152;48.348;10.980;2023-04-24T15:21:58;19.10;84.40
14144;DHT22;7152;48.348;10.980;2023-04-24T15:24:24;18.20;83.10
14144;DHT22;7152;48.348;10.980;2023-04-24T15:26:50;17.50;84.50
14144;DHT22;7152;48.348;10.980;2023-04-24T15:29:15;16.70;85.50
14144;DHT22;7152;48.348;10.980;2023-04-24T15:31:41;16.20;87.60
14144;DHT22;7152;48.348;10.980;2023-04-24T15:34:07;15.80;87.30
14144;DHT22;7152;48.348;10.980;2023-04-24T15:36:32;15.80;88.60